LDRILIPQ

Guest
Details From LDRI - RIJEKA
To LIPQ - Ronchi Dei Legionari
Flight Number -
Tags generated
Created
Modified
Stats Distance 59 nm / 110 km
Max Altitude 7,500 ft / 2,286 m
Waypoints 3
Social Downloads 2
Likes 0
Share VATSIM

Download

Looking for another format? Having issues loading an existing format? Contact us
Advertisement - Login to hide

Notes

Basic altitude profile: - Ascent Rate: 2500ft/min - Ascent Speed: 250kts - Cruise Altitude: 35000ft - Cruise Speed: 420kts - Descent Rate: 1500ft/min - Descent Speed: 250kts Options: - Use NATs: yes - Use PACOTS: yes - Use low airways: yes - Use high airways: no

Route

LDRI GIRDA LIPQ

ID Type Via Altitude Latitude Longitude Leg Dist Tot Dist Heading (true) Name
O LDRI APT - 0 ft / 0 m 45.21663˚ 14.57081˚ - 0 nm - RIJEKA
GIRDA FIX - 7,500 ft / 2,286 m 45.47557˚ 14.13395˚ 24 nm 24 nm 310° / 310° -
O LIPQ APT - 0 ft / 0 m 45.82786˚ 13.46666˚ 35 nm 59 nm 307° / 307° Ronchi Dei Legionari

Altitude Profile

Advertisement - Login to hide

LDRI

Details ICAO LDRI (RJK)
Name RIJEKA
Region Croatia
Timezone Europe/Zagreb (UTC+1.0)
Stats Elevation 278 ft / 85 m (AMSL)
Location 45.216635° 14.570813°
Runways 1
Magnetic Variation 3.624° E

METAR

LDRI 181800Z 03004KT 360V070 9999 FEW050 04/M05 Q1024

Decode

TAF

TAF LDRI 181125Z 1812/1912 36008KT CAVOK TX07/1813Z TNM02/1905Z=

Decode

Departure Runways

ID Width Length Bearing (true) Bearing (mag) Surface Threshold Offset Overrun Length
14 148 ft / 45 m 8,161 ft / 2,488 m 143.77° 140.15° Asphalt 0 ft / 0 m 0 ft / 0 m
32 148 ft / 45 m 8,161 ft / 2,488 m 323.78° 320.16° Asphalt 0 ft / 0 m 0 ft / 0 m

LIPQ

Details ICAO LIPQ (TRS)
Name Ronchi Dei Legionari
Region Italy
Timezone Europe/Rome (UTC+1.0)
Stats Elevation 37 ft / 11 m (AMSL)
Location 45.827857° 13.466663°
Runways 1
Magnetic Variation 3.432° E

METAR

LIPQ 181850Z 10004KT CAVOK 01/M06 Q1026

Decode

TAF

TAF LIPQ 181700Z 1818/1918 03006KT CAVOK

Decode

Destination Runways

ID Width Length Bearing (true) Bearing (mag) Surface Threshold Offset Overrun Length
09 148 ft / 45 m 9,819 ft / 2,993 m 90.42° 86.99° Asphalt 823 ft / 251 m 0 ft / 0 m
27 148 ft / 45 m 9,819 ft / 2,993 m 270.44° 267.01° Asphalt 10 ft / 3 m 190 ft / 58 m

Approach Navaids

Runway Type Ident Frequency Range Bearing (true) Bearing (mag) Slope Elevation
09 Localiser RNC 110.75 MHz 18 nm / 33 km 90.43° 87.00° - 43 ft / 13 m (AMSL)
09 Glidescope RNC 110.75 MHz 10 nm / 19 km 90.43° 87.00° 3.00° 82 ft / 25 m (AMSL)
09 DME RNC 110.75 MHz 18 nm / 33 km - - - 53 ft / 16 m (AMSL)